createdAt,value
2023-02-23T00:00:00.948Z,81.6
2023-02-23T00:05:01.003Z,94.1
2023-02-23T00:10:00.919Z,106.0
2023-02-23T00:15:00.996Z,98.6
2023-02-23T00:20:00.970Z,116.2
2023-02-23T00:25:01.609Z,106.6
2023-02-23T00:30:06.002Z,97.8
2023-02-23T00:35:06.110Z,91.7
2023-02-23T00:40:00.933Z,102.4
2023-02-23T00:45:01.011Z,94.5
2023-02-23T00:50:01.259Z,94.9
2023-02-23T00:55:01.062Z,90.6
2023-02-23T01:00:00.939Z,71.1
2023-02-23T01:05:01.004Z,70.9
2023-02-23T01:10:00.967Z,69.6
2023-02-23T01:15:01.076Z,62.4
2023-02-23T01:20:06.240Z,53.1
2023-02-23T01:25:01.044Z,72.2
2023-02-23T01:30:01.311Z,76.3
2023-02-23T01:35:01.012Z,78.2
2023-02-23T01:40:00.947Z,83.6
2023-02-23T01:45:01.025Z,92.5
2023-02-23T02:00:01.526Z,82.4
2023-02-23T02:05:01.703Z,86.0
2023-02-23T02:10:01.428Z,86.5
2023-02-23T02:15:01.486Z,85.7
2023-02-23T02:20:01.448Z,85.4
2023-02-23T02:25:01.579Z,85.5
2023-02-23T02:30:01.403Z,84.0
2023-02-23T02:50:01.481Z,74.8
2023-02-23T02:55:02.301Z,53.6
2023-02-23T03:00:01.236Z,65.8
2023-02-23T03:05:01.395Z,71.3
2023-02-23T03:10:01.265Z,75.4
2023-02-23T03:15:01.335Z,78.9
2023-02-23T03:20:01.267Z,91.8
2023-02-23T03:40:06.249Z,105.0
2023-02-23T03:45:01.128Z,100.3
2023-02-23T03:50:01.056Z,98.9
2023-02-23T03:55:01.120Z,98.8
2023-02-23T04:00:01.090Z,97.7
2023-02-23T04:05:01.189Z,97.2
2023-02-23T04:10:01.063Z,98.8
2023-02-23T04:15:01.196Z,101.6
2023-02-23T04:20:01.088Z,103.6
2023-02-23T04:25:01.131Z,104.0
2023-02-23T04:30:01.512Z,104.7
2023-02-23T04:35:01.711Z,106.0
2023-02-23T04:40:01.436Z,105.1
2023-02-23T04:45:01.162Z,104.0
2023-02-23T04:50:01.438Z,104.8
2023-02-23T04:55:01.172Z,104.4
2023-02-23T05:00:01.177Z,102.5
2023-02-23T05:05:01.235Z,101.6
2023-02-23T05:10:01.169Z,102.0
2023-02-23T05:15:01.292Z,104.5
2023-02-23T05:20:01.492Z,104.4
2023-02-23T05:25:06.323Z,106.0
2023-02-23T05:30:01.382Z,109.1
2023-02-23T05:35:03.091Z,109.3
2023-02-23T05:40:01.193Z,108.4
2023-02-23T05:45:01.226Z,109.2
2023-02-23T05:50:01.080Z,108.9
2023-02-23T05:55:01.476Z,104.8
2023-02-23T06:00:01.084Z,104.0
2023-02-23T06:05:01.181Z,104.4
2023-02-23T06:10:01.052Z,103.4
2023-02-23T06:15:06.143Z,103.6
2023-02-23T06:20:01.709Z,114.0
2023-02-23T06:25:01.101Z,113.8
2023-02-23T06:30:01.050Z,115.9
2023-02-23T06:35:01.311Z,118.4
2023-02-23T06:40:01.060Z,117.8
2023-02-23T06:45:01.576Z,110.0
2023-02-23T06:50:01.064Z,112.3
2023-02-23T06:55:01.147Z,109.2
2023-02-23T07:00:01.060Z,106.8
2023-02-23T07:05:01.207Z,108.0
2023-02-23T07:10:01.056Z,108.4
2023-02-23T07:15:01.157Z,106.3
2023-02-23T07:25:01.120Z,106.0
2023-02-23T07:30:01.068Z,102.7
2023-02-23T07:35:01.213Z,101.3
2023-02-23T07:40:01.569Z,101.0
2023-02-23T07:45:01.156Z,99.3
2023-02-23T07:50:01.409Z,98.4
2023-02-23T07:55:01.268Z,99.7
2023-02-23T08:00:01.106Z,99.4
2023-02-23T08:05:01.123Z,99.6
2023-02-23T08:10:01.085Z,102.0
2023-02-23T08:15:01.184Z,101.6
2023-02-23T08:20:01.063Z,101.0
2023-02-23T08:25:01.134Z,101.1
2023-02-23T08:30:01.395Z,101.5
2023-02-23T08:40:01.424Z,99.0
2023-02-23T08:45:01.757Z,93.6
2023-02-23T08:50:01.056Z,86.6
2023-02-23T08:55:01.599Z,85.8
2023-02-23T09:00:01.157Z,83.6
2023-02-23T09:05:01.181Z,86.4
2023-02-23T09:10:01.067Z,92.6
2023-02-23T09:15:01.735Z,99.1
2023-02-23T09:20:01.091Z,99.8
2023-02-23T09:25:01.188Z,102.4
2023-02-23T09:30:01.074Z,102.4
2023-02-23T09:35:01.127Z,103.0
2023-02-23T09:40:01.570Z,104.1
2023-02-23T09:45:01.152Z,104.1
2023-02-23T09:50:01.061Z,105.7
2023-02-23T09:55:01.192Z,108.3
2023-02-23T10:00:01.163Z,109.5
2023-02-23T10:05:01.164Z,110.8
2023-02-23T10:10:01.084Z,110.0
2023-02-23T10:15:01.132Z,107.1
2023-02-23T10:20:01.086Z,104.0
2023-02-23T10:40:01.551Z,94.8
2023-02-23T10:45:01.539Z,96.3
2023-02-23T10:50:01.485Z,96.5
2023-02-23T10:55:01.642Z,97.6
2023-02-23T11:00:01.599Z,97.6
2023-02-23T11:20:02.266Z,102.2
2023-02-23T11:25:01.662Z,100.2
2023-02-23T11:30:01.449Z,100.2
2023-02-23T11:35:01.285Z,98.6
2023-02-23T11:50:01.800Z,98.0
2023-02-23T11:55:01.843Z,99.2
2023-02-23T12:00:02.031Z,103.6
2023-02-23T12:05:01.863Z,102.3
2023-02-23T12:10:01.859Z,105.2
2023-02-23T12:15:01.816Z,106.8
2023-02-23T12:20:01.659Z,107.4
2023-02-23T12:25:01.782Z,106.2
2023-02-23T12:30:01.720Z,109.6
2023-02-23T12:35:01.755Z,109.4
2023-02-23T12:40:06.626Z,110.3
2023-02-23T12:45:01.750Z,110.6
2023-02-23T12:50:02.049Z,109.8
2023-02-23T12:55:01.658Z,105.3
2023-02-23T13:00:01.580Z,100.3
2023-02-23T13:20:01.206Z,109.2
2023-02-23T13:25:01.417Z,110.7
2023-02-23T13:30:00.974Z,107.9
2023-02-23T13:35:01.054Z,108.5
2023-02-23T13:40:00.998Z,110.2
2023-02-23T14:00:01.871Z,109.6
2023-02-23T14:05:01.689Z,98.7
2023-02-23T14:20:01.197Z,108.2
2023-02-23T14:25:06.276Z,112.9
2023-02-23T14:40:02.720Z,97.6
2023-02-23T14:45:01.674Z,92.6
2023-02-23T14:50:01.595Z,90.5
2023-02-23T14:55:01.630Z,84.3
2023-02-23T15:00:01.912Z,76.6
2023-02-23T15:05:01.883Z,57.1
2023-02-23T15:45:01.405Z,19.6
2023-02-23T15:50:01.291Z,25.6
2023-02-23T15:55:01.546Z,25.5
2023-02-23T16:00:01.306Z,21.0
2023-02-23T16:05:01.456Z,12.2
2023-02-23T16:10:01.727Z,7.3
